Time;durP1;ratioP1;P1;durP2;ratioP2;P2;SDS_P1;SDS_P2;PMS_P1;PMS_P2;Temp;Humidity;BMP_temperature;BMP_pressure;BME280_temperature;BME280_humidity;BME280_pressure;Samples;Min_cycle;Max_cycle;Signal;HPM_P1;HPM_P2
2023/12/14 06:45:10;;;;;;;5.10;3.38;;;;;;;;;;10525828;28;20416;-84
2023/12/14 06:50:13;;;;;;;4.35;3.17;;;;;;;;;;10515011;28;20036;-86
2023/12/14 06:55:14;;;;;;;2.60;1.98;;;;;;;;;;10483813;23;20049;-85
2023/12/14 07:00:16;;;;;;;5.20;3.67;;;;;;;;;;10426908;28;20023;-83
2023/12/14 07:05:16;;;;;;;;;;;;;;;;;;10450118;28;20129;-85
2023/12/14 07:10:18;;;;;;;4.22;3.00;;;;;;;;;;10344798;28;19978;-85
2023/12/14 07:15:23;;;;;;;2.80;2.08;;;;;;;;;;10341810;28;20031;-85
2023/12/14 07:20:25;;;;;;;3.30;2.38;;;;;;;;;;10341140;28;20027;-85
2023/12/14 07:25:26;;;;;;;3.30;2.20;;;;;;;;;;10339044;28;20023;-85
2023/12/14 07:30:27;;;;;;;4.45;3.83;;;;;;;;;;10337698;28;20031;-85
2023/12/14 07:35:28;;;;;;;;;;;;;;;;;;10337020;28;20017;-85
2023/12/14 07:40:29;;;;;;;7.03;4.97;;;;;;;;;;10338809;28;19909;-85
2023/12/14 07:45:30;;;;;;;3.47;3.05;;;;;;;;;;10330429;28;20042;-85
2023/12/14 07:50:31;;;;;;;5.75;5.00;;;;;;;;;;10347421;28;20018;-85
2023/12/14 07:55:32;;;;;;;;;;;;;;;;;;10342268;28;20047;-85
2023/12/14 08:00:33;;;;;;;4.32;3.20;;;;;;;;;;10307948;28;20016;-85
2023/12/14 08:05:34;;;;;;;3.53;2.20;;;;;;;;;;10305446;28;20496;-82
2023/12/14 08:10:35;;;;;;;;;;;;;;;;;;10307690;28;20074;-81
2023/12/14 08:15:37;;;;;;;7.13;5.30;;;;;;;;;;10307174;28;19906;-79
2023/12/14 08:20:38;;;;;;;6.63;5.53;;;;;;;;;;10312415;28;20077;-81
2023/12/14 08:25:39;;;;;;;5.35;3.95;;;;;;;;;;10317554;28;20034;-81
2023/12/14 08:30:45;;;;;;;;;;;;;;;;;;10312246;28;20033;-82
2023/12/14 08:35:46;;;;;;;5.35;4.10;;;;;;;;;;10317796;28;20292;-81
2023/12/14 08:40:50;;;;;;;5.20;4.07;;;;;;;;;;10316399;28;20054;-82
2023/12/14 08:45:56;;;;;;;8.20;6.13;;;;;;;;;;10294597;28;20463;-83
2023/12/14 08:51:10;;;;;;;6.55;4.57;;;;;;;;;;10308985;28;20523;-83
2023/12/14 08:56:16;;;;;;;5.03;4.07;;;;;;;;;;10305274;28;20483;-84
2023/12/14 09:01:21;;;;;;;6.72;5.32;;;;;;;;;;10306918;28;20050;-83
2023/12/14 09:06:22;;;;;;;5.85;4.65;;;;;;;;;;10305565;28;20180;-83
2023/12/14 09:11:23;;;;;;;;;;;;;;;;;;10309697;28;20063;-83
2023/12/14 09:16:34;;;;;;;9.73;7.32;;;;;;;;;;10316276;28;19910;-84
2023/12/14 09:21:55;;;;;;;4.55;3.83;;;;;;;;;;10320042;28;20045;-84
2023/12/14 09:32:39;;;;;;;5.20;3.80;;;;;;;;;;10304639;28;20466;-84
2023/12/14 09:38:02;;;;;;;5.10;4.60;;;;;;;;;;10306172;28;20026;-86
2023/12/14 09:44:11;;;;;;;7.03;5.43;;;;;;;;;;10223929;29;20036;-85
2023/12/14 09:55:41;;;;;;;5.00;4.10;;;;;;;;;;10267476;29;20047;-85
2023/12/14 10:01:24;;;;;;;5.90;4.38;;;;;;;;;;10263628;29;20495;-84
2023/12/14 10:06:49;;;;;;;6.07;5.10;;;;;;;;;;10263634;29;20039;-85
2023/12/14 10:12:17;;;;;;;6.85;5.28;;;;;;;;;;10212069;29;20078;-84
2023/12/14 10:17:21;;;;;;;7.43;5.97;;;;;;;;;;10189545;28;20147;-84
2023/12/14 10:22:23;;;;;;;5.63;3.88;;;;;;;;;;10216844;28;20377;-85
2023/12/14 10:27:24;;;;;;;6.65;5.60;;;;;;;;;;10302103;28;20046;-85
2023/12/14 10:32:36;;;;;;;6.75;4.90;;;;;;;;;;10300486;28;20039;-84
2023/12/14 10:37:41;;;;;;;6.93;5.57;;;;;;;;;;10301009;28;20087;-85
2023/12/14 10:42:47;;;;;;;9.02;6.35;;;;;;;;;;10301727;28;20106;-83
2023/12/14 10:47:48;;;;;;;12.10;4.78;;;;;;;;;;10301087;28;20027;-84
2023/12/14 10:52:49;;;;;;;6.95;5.20;;;;;;;;;;10300632;28;20034;-83
2023/12/14 10:57:51;;;;;;;;;;;;;;;;;;10299132;28;20034;-84
2023/12/14 11:02:57;;;;;;;5.70;3.50;;;;;;;;;;10301881;28;19910;-84
2023/12/14 11:08:11;;;;;;;14.55;10.90;;;;;;;;;;10298565;28;20037;-84
2023/12/14 11:13:16;;;;;;;4.53;4.13;;;;;;;;;;10299245;28;20065;-84
2023/12/14 11:18:32;;;;;;;4.82;4.05;;;;;;;;;;10299725;28;20130;-83
2023/12/14 11:23:35;;;;;;;5.68;4.75;;;;;;;;;;10299290;28;20088;-82
2023/12/14 11:28:42;;;;;;;6.55;4.85;;;;;;;;;;10298739;28;20022;-81
2023/12/14 11:33:44;;;;;;;5.60;4.53;;;;;;;;;;10305952;28;20031;-81
2023/12/14 11:38:47;;;;;;;11.25;8.75;;;;;;;;;;10302515;28;20026;-84
2023/12/14 11:43:50;;;;;;;5.38;4.25;;;;;;;;;;10305875;28;20127;-81
2023/12/14 11:48:54;;;;;;;5.60;4.63;;;;;;;;;;10308772;28;20035;-81
2023/12/14 11:53:55;;;;;;;5.50;4.43;;;;;;;;;;10304214;28;20091;-83
2023/12/14 11:58:57;;;;;;;3.47;2.90;;;;;;;;;;10308882;28;20488;-80
2023/12/14 12:04:09;;;;;;;5.60;4.65;;;;;;;;;;10320494;28;20027;-83
2023/12/14 12:09:11;;;;;;;4.75;3.60;;;;;;;;;;10321118;28;20027;-82
2023/12/14 12:14:12;;;;;;;4.20;3.65;;;;;;;;;;10316030;28;20027;-82
2023/12/14 12:19:13;;;;;;;;;;;;;;;;;;10315577;28;20095;-84
2023/12/14 12:24:23;;;;;;;4.95;4.25;;;;;;;;;;10309497;28;19910;-83
2023/12/14 12:29:24;;;;;;;5.57;3.90;;;;;;;;;;10307795;28;20039;-82
2023/12/14 12:34:25;;;;;;;;;;;;;;;;;;10318618;28;20320;-82
2023/12/14 12:39:28;;;;;;;5.30;4.47;;;;;;;;;;10311054;28;19906;-82
2023/12/14 12:44:29;;;;;;;5.85;4.93;;;;;;;;;;10304076;28;20352;-83
2023/12/14 12:49:30;;;;;;;;;;;;;;;;;;10311763;28;20065;-82
2023/12/14 12:54:34;;;;;;;5.43;4.68;;;;;;;;;;10359771;23;21823;-80
2023/12/14 12:59:35;;;;;;;8.70;5.32;;;;;;;;;;10300691;28;20031;-79
2023/12/14 13:04:37;;;;;;;4.65;3.97;;;;;;;;;;10300314;28;20027;-80
2023/12/14 13:09:38;;;;;;;4.78;4.28;;;;;;;;;;10313220;28;20023;-79
2023/12/14 13:14:39;;;;;;;7.22;5.70;;;;;;;;;;10297561;28;20034;-81
2023/12/14 13:19:40;;;;;;;;;;;;;;;;;;10295455;28;20027;-78
2023/12/14 13:24:41;;;;;;;5.78;3.55;;;;;;;;;;10296536;28;19910;-81
2023/12/14 13:29:42;;;;;;;;;;;;;;;;;;10295386;28;20031;-79
2023/12/14 13:34:43;;;;;;;4.68;3.80;;;;;;;;;;10294071;28;19910;-80
2023/12/14 13:39:44;;;;;;;;;;;;;;;;;;10294715;28;20036;-79
2023/12/14 13:44:45;;;;;;;3.88;3.22;;;;;;;;;;10296177;28;19910;-80
2023/12/14 13:49:46;;;;;;;5.03;3.63;;;;;;;;;;10295982;28;20149;-81
2023/12/14 13:54:47;;;;;;;;;;;;;;;;;;10297260;28;20074;-78
2023/12/14 13:59:48;;;;;;;6.65;4.20;;;;;;;;;;10302005;28;19906;-78
2023/12/14 14:04:49;;;;;;;;;;;;;;;;;;10301210;28;20109;-79
2023/12/14 14:09:50;;;;;;;5.60;4.50;;;;;;;;;;10306651;28;20029;-78
2023/12/14 14:14:51;;;;;;;8.40;7.50;;;;;;;;;;10298184;28;20064;-76
2023/12/14 14:19:52;;;;;;;;;;;;;;;;;;10298259;28;20092;-78
2023/12/14 14:24:53;;;;;;;6.15;3.72;;;;;;;;;;10290799;28;19959;-78
2023/12/14 14:29:56;;;;;;;5.15;4.65;;;;;;;;;;10291724;28;20027;-79
2023/12/14 14:34:58;;;;;;;5.13;4.03;;;;;;;;;;10292696;28;20080;-77
2023/12/14 14:40:00;;;;;;;4.90;4.10;;;;;;;;;;10290904;28;20491;-78
2023/12/14 14:45:01;;;;;;;4.53;3.35;;;;;;;;;;10290544;28;20065;-78
2023/12/14 14:50:06;;;;;;;;;;;;;;;;;;10293314;28;20528;-78
2023/12/14 14:55:08;;;;;;;4.63;4.13;;;;;;;;;;10299120;28;20386;-80
2023/12/14 15:00:10;;;;;;;3.95;3.47;;;;;;;;;;10302914;28;20034;-81
2023/12/14 15:05:11;;;;;;;3.78;3.10;;;;;;;;;;10299111;28;20045;-80
2023/12/14 15:10:12;;;;;;;;;;;;;;;;;;10300484;28;20126;-81
2023/12/14 15:15:13;;;;;;;7.20;4.97;;;;;;;;;;10298662;28;20001;-79
2023/12/14 15:20:14;;;;;;;;;;;;;;;;;;10298202;28;20038;-78
2023/12/14 15:25:16;;;;;;;6.50;5.50;;;;;;;;;;10300591;28;19910;-79
2023/12/14 15:30:20;;;;;;;6.18;4.80;;;;;;;;;;10303903;28;20027;-84
2023/12/14 15:35:23;;;;;;;4.63;3.85;;;;;;;;;;10316825;28;20031;-78
2023/12/14 15:40:24;;;;;;;;;;;;;;;;;;10302682;28;20089;-79
2023/12/14 15:45:27;;;;;;;4.20;3.15;;;;;;;;;;10299873;28;19947;-80
2023/12/14 15:50:28;;;;;;;4.47;3.53;;;;;;;;;;10299320;28;20118;-79
2023/12/14 15:55:29;;;;;;;4.15;2.85;;;;;;;;;;10295120;28;20064;-79
2023/12/14 16:00:34;;;;;;;;;;;;;;;;;;10297720;28;20522;-79
2023/12/14 16:05:35;;;;;;;4.72;4.22;;;;;;;;;;10299692;28;19933;-80
2023/12/14 16:10:36;;;;;;;4.32;3.50;;;;;;;;;;10305696;28;20121;-79
2023/12/14 16:15:37;;;;;;;;;;;;;;;;;;10301393;28;20054;-79
2023/12/14 16:20:38;;;;;;;8.40;6.18;;;;;;;;;;10304274;28;19910;-79
2023/12/14 16:25:39;;;;;;;;;;;;;;;;;;10302884;28;20042;-82
2023/12/14 16:30:40;;;;;;;5.80;4.60;;;;;;;;;;10298712;28;19913;-78
2023/12/14 16:35:41;;;;;;;3.88;2.92;;;;;;;;;;10300848;28;20041;-80
2023/12/14 16:40:42;;;;;;;4.93;3.88;;;;;;;;;;10299956;28;20027;-80
2023/12/14 16:45:44;;;;;;;6.88;5.05;;;;;;;;;;10313089;28;20015;-80
2023/12/14 16:50:45;;;;;;;4.47;3.72;;;;;;;;;;10302290;28;20054;-79
2023/12/14 16:55:46;;;;;;;5.10;4.03;;;;;;;;;;10300993;28;20065;-78
2023/12/14 17:00:47;;;;;;;;;;;;;;;;;;10299838;28;20081;-79
2023/12/14 17:05:49;;;;;;;5.85;4.32;;;;;;;;;;10299864;28;19912;-80
2023/12/14 17:10:50;;;;;;;4.95;3.88;;;;;;;;;;10298633;28;20023;-78
2023/12/14 17:15:51;;;;;;;4.15;2.80;;;;;;;;;;10299189;28;20409;-79
2023/12/14 17:20:52;;;;;;;6.30;4.70;;;;;;;;;;10308952;28;20217;-82
2023/12/14 17:25:54;;;;;;;7.47;5.07;;;;;;;;;;10317477;28;20136;-84
2023/12/14 17:30:57;;;;;;;7.88;6.57;;;;;;;;;;10321704;28;20088;-85
2023/12/14 17:35:58;;;;;;;5.63;3.53;;;;;;;;;;10316593;28;20050;-85
2023/12/14 17:41:04;;;;;;;;;;;;;;;;;;10313429;28;20031;-85
2023/12/14 17:46:17;;;;;;;4.25;3.40;;;;;;;;;;10312121;28;19960;-84
2023/12/14 17:51:34;;;;;;;4.82;2.88;;;;;;;;;;10378523;28;20035;-85
2023/12/14 17:57:20;;;;;;;5.50;2.92;;;;;;;;;;10363997;28;20046;-85
2023/12/14 18:02:34;;;;;;;2.75;2.55;;;;;;;;;;10307122;28;20035;-85
2023/12/14 18:07:39;;;;;;;5.20;4.45;;;;;;;;;;10307779;28;20031;-84
2023/12/14 18:12:44;;;;;;;4.00;3.53;;;;;;;;;;10291937;28;20060;-84
2023/12/14 18:18:04;;;;;;;4.22;2.42;;;;;;;;;;10311335;28;20040;-83
2023/12/14 18:23:26;;;;;;;6.30;4.25;;;;;;;;;;10306598;28;20498;-84
2023/12/14 18:28:34;;;;;;;3.60;3.10;;;;;;;;;;10307369;28;20023;-84
2023/12/14 18:33:38;;;;;;;4.30;3.40;;;;;;;;;;10503773;28;20056;-84
2023/12/14 18:38:44;;;;;;;3.20;2.70;;;;;;;;;;10327907;28;20031;-84
2023/12/14 18:43:48;;;;;;;4.10;3.20;;;;;;;;;;10317514;28;20058;-83
2023/12/14 18:48:56;;;;;;;4.78;3.83;;;;;;;;;;10326868;28;20034;-83
2023/12/14 18:53:57;;;;;;;4.78;3.85;;;;;;;;;;10303874;28;20114;-83
2023/12/14 18:59:00;;;;;;;3.45;3.00;;;;;;;;;;10467024;23;20527;-85
2023/12/14 19:04:28;;;;;;;4.03;3.35;;;;;;;;;;10460088;28;20037;-85
2023/12/14 19:09:53;;;;;;;3.80;2.92;;;;;;;;;;10439937;28;20025;-85
2023/12/14 19:15:15;;;;;;;3.80;2.83;;;;;;;;;;10443406;28;20034;-84
2023/12/14 19:20:16;;;;;;;3.95;3.25;;;;;;;;;;10442848;28;20021;-84
2023/12/14 19:25:19;;;;;;;3.83;3.38;;;;;;;;;;10418703;28;20062;-84
2023/12/14 19:30:20;;;;;;;3.70;3.30;;;;;;;;;;10411223;28;20075;-85
2023/12/14 19:35:21;;;;;;;4.90;3.78;;;;;;;;;;10417855;28;20399;-85
2023/12/14 19:40:22;;;;;;;3.08;2.60;;;;;;;;;;10419321;28;20117;-85
2023/12/14 19:45:25;;;;;;;;;;;;;;;;;;10418439;28;20080;-84
2023/12/14 19:50:26;;;;;;;3.95;3.20;;;;;;;;;;10417912;28;20440;-84
2023/12/14 19:55:27;;;;;;;;;;;;;;;;;;10444170;28;20081;-85
2023/12/14 20:00:28;;;;;;;4.45;3.58;;;;;;;;;;10427138;28;20278;-84
2023/12/14 20:05:29;;;;;;;4.10;2.95;;;;;;;;;;10425812;28;20034;-85
